Time;durP1;ratioP1;P1;durP2;ratioP2;P2;SDS_P1;SDS_P2;PMS_P1;PMS_P2;Temp;Humidity;BMP_temperature;BMP_pressure;BME280_temperature;BME280_humidity;BME280_pressure;Samples;Min_cycle;Max_cycle;Signal;HPM_P1;HPM_P2
2022/03/09 00:00:11;;;;;;;;;;;;;;;-3.51;82.11;99568.10;1784232;79;20172;-67
2022/03/09 00:02:38;;;;;;;;;;;;;;;-3.53;81.70;99564.82;1784299;80;21216;-67
2022/03/09 00:05:08;;;;;;;;;;;;;;;-3.55;81.72;99562.36;1784333;80;20145;-67
2022/03/09 00:07:37;;;;;;;;;;;;;;;-3.53;81.63;99565.64;1784422;80;20164;-67
2022/03/09 00:10:09;;;;;;;;;;;;;;;-3.52;81.81;99565.94;1756017;80;20121;-67
2022/03/09 00:12:37;;;;;;;;;;;;;;;-3.53;81.43;99565.64;1752013;82;20122;-68
2022/03/09 00:15:12;;;;;;;;;;;;;;;-3.51;81.40;99566.23;1749797;82;21204;-68
2022/03/09 00:17:37;;;;;;;;;;;;;;;-3.52;81.23;99563.26;1753034;82;20118;-68
2022/03/09 00:20:09;;;;;;;;;;;;;;;-3.53;81.08;99566.98;1753074;82;20425;-68
2022/03/09 00:22:37;;;;;;;;;;;;;;;-3.54;81.06;99568.55;1752439;82;20432;-67
2022/03/09 00:25:09;;;;;;;;;;;;;;;-3.56;80.83;99558.56;1752386;81;20130;-67
2022/03/09 00:27:37;;;;;;;;;;;;;;;-3.59;80.60;99565.72;1752555;82;20755;-67
2022/03/09 00:30:12;;;;;;;;;;;;;;;-3.63;80.51;99563.17;1728669;82;21056;-66
2022/03/09 00:32:42;;;;;;;;;;;;;;;-3.69;80.36;99570.25;1751818;82;20118;-66
2022/03/09 00:35:13;;;;;;;;;;;;;;;-3.78;80.14;99562.20;1752416;80;20731;-66
2022/03/09 00:37:47;;;;;;;;;;;;;;;-3.86;80.39;99567.84;1748967;81;20098;-66
2022/03/09 00:40:18;;;;;;;;;;;;;;;-3.93;80.28;99568.43;1727879;82;20099;-66
2022/03/09 00:42:49;;;;;;;;;;;;;;;-4.02;80.06;99579.44;1752000;82;20099;-66
2022/03/09 00:45:26;;;;;;;;;;;;;;;-4.13;80.17;99576.16;1752394;82;20078;-65
2022/03/09 00:47:56;;;;;;;;;;;;;;;-4.19;80.42;99578.38;1751977;81;20102;-65
2022/03/09 00:50:25;;;;;;;;;;;;;;;-4.27;80.43;99574.63;1752771;81;20094;-65
2022/03/09 00:52:59;;;;;;;;;;;;;;;-4.33;80.52;99572.83;1729075;82;20912;-65
2022/03/09 00:55:29;;;;;;;;;;;;;;;-4.38;80.64;99578.84;1751737;82;20153;-65
2022/03/09 00:57:58;;;;;;;;;;;;;;;-4.43;81.01;99579.19;1728639;82;20110;-65
2022/03/09 01:00:38;;;;;;;;;;;;;;;-4.47;81.17;99572.63;1752423;82;20135;-65
2022/03/09 01:03:07;;;;;;;;;;;;;;;-4.51;81.13;99569.56;1746480;82;20111;-64
2022/03/09 01:05:41;;;;;;;;;;;;;;;-4.57;81.22;99572.28;1752024;81;21129;-65
2022/03/09 01:08:14;;;;;;;;;;;;;;;-4.66;81.55;99567.22;1752251;80;20083;-64
2022/03/09 01:10:44;;;;;;;;;;;;;;;-4.70;81.86;99572.70;1728692;82;20413;-65
2022/03/09 01:13:13;;;;;;;;;;;;;;;-4.76;81.95;99573.56;1752314;80;20130;-65
2022/03/09 01:15:41;;;;;;;;;;;;;;;-4.84;82.00;99567.64;1769842;79;20073;-65
2022/03/09 01:18:09;;;;;;;;;;;;;;;-4.90;82.83;99567.16;1784298;80;21202;-65
2022/03/09 01:20:37;;;;;;;;;;;;;;;-4.94;82.83;99575.32;1779890;80;20419;-64
2022/03/09 01:23:05;;;;;;;;;;;;;;;-4.99;82.78;99573.28;1783100;80;20081;-64
2022/03/09 01:25:31;;;;;;;;;;;;;;;-5.04;82.92;99573.11;1782581;80;20659;-65
2022/03/09 01:27:59;;;;;;;;;;;;;;;-5.05;83.26;99578.16;1783152;80;20148;-65
2022/03/09 01:30:27;;;;;;;;;;;;;;;-5.04;83.41;99578.46;1782827;80;21124;-65
2022/03/09 01:32:54;;;;;;;;;;;;;;;-5.00;83.46;99583.69;1783123;80;20116;-65
2022/03/09 01:35:21;;;;;;;;;;;;;;;-4.97;83.59;99582.44;1783313;80;20112;-65
2022/03/09 01:37:48;;;;;;;;;;;;;;;-4.92;83.87;99583.95;1782648;80;20092;-64
2022/03/09 01:40:15;;;;;;;;;;;;;;;-4.88;83.86;99583.83;1782912;80;20144;-66
2022/03/09 01:42:42;;;;;;;;;;;;;;;-4.84;83.72;99584.53;1782861;80;21218;-67
2022/03/09 01:45:10;;;;;;;;;;;;;;;-4.79;83.88;99592.74;1782526;80;20153;-66
2022/03/09 01:47:38;;;;;;;;;;;;;;;-4.75;83.84;99593.13;1783019;80;20415;-66
2022/03/09 01:50:08;;;;;;;;;;;;;;;-4.71;83.95;99595.17;1783316;79;20128;-69
2022/03/09 01:52:36;;;;;;;;;;;;;;;-4.68;83.83;99590.72;1779436;80;20451;-65
2022/03/09 01:55:06;;;;;;;;;;;;;;;-4.61;84.10;99592.50;1782763;80;21566;-66
2022/03/09 01:57:33;;;;;;;;;;;;;;;-4.55;83.89;99592.98;1782983;80;20096;-65
2022/03/09 02:00:01;;;;;;;;;;;;;;;-4.53;83.73;99593.59;1783101;80;20076;-65
2022/03/09 02:02:28;;;;;;;;;;;;;;;-4.52;83.51;99593.37;1756760;80;20120;-64
2022/03/09 02:04:56;;;;;;;;;;;;;;;-4.49;83.56;99594.80;1779794;80;20116;-64
2022/03/09 02:10:12;;;;;;;;;;;;;;;-4.51;82.99;99598.21;1754507;80;20453;-65
2022/03/09 02:12:41;;;;;;;;;;;;;;;-4.53;84.22;99594.92;1751765;81;20441;-66
2022/03/09 02:15:10;;;;;;;;;;;;;;;-4.51;83.85;99598.21;1751534;80;20118;-65
2022/03/09 02:17:38;;;;;;;;;;;;;;;-4.47;84.29;99599.42;1751818;82;20147;-66
2022/03/09 02:20:07;;;;;;;;;;;;;;;-4.47;83.21;99598.08;1751781;82;21143;-66
2022/03/09 02:22:35;;;;;;;;;;;;;;;-4.50;82.92;99607.38;1751833;82;20099;-67
2022/03/09 02:25:08;;;;;;;;;;;;;;;-4.53;82.61;99603.78;1751824;82;20416;-67
2022/03/09 02:27:35;;;;;;;;;;;;;;;-4.58;82.43;99603.61;1751780;82;20130;-66
2022/03/09 02:30:02;;;;;;;;;;;;;;;-4.61;82.20;99604.56;1751846;82;20082;-67
2022/03/09 02:32:29;;;;;;;;;;;;;;;-4.66;82.34;99606.06;1751869;82;21195;-67
2022/03/09 02:34:56;;;;;;;;;;;;;;;-4.64;82.75;99617.08;1751548;82;20106;-67
2022/03/09 02:37:22;;;;;;;;;;;;;;;-4.64;82.45;99611.72;1752184;80;20452;-67
2022/03/09 02:39:51;;;;;;;;;;;;;;;-4.66;82.22;99614.61;1751712;82;20170;-67
2022/03/09 02:42:20;;;;;;;;;;;;;;;-4.68;82.42;99616.17;1757398;80;20437;-67
2022/03/09 02:44:48;;;;;;;;;;;;;;;-4.68;82.60;99620.19;1777490;80;21745;-67
2022/03/09 02:47:16;;;;;;;;;;;;;;;-4.70;82.61;99623.59;1784149;80;20103;-66
2022/03/09 02:49:43;;;;;;;;;;;;;;;-4.72;82.35;99626.19;1784211;80;20161;-66
2022/03/09 02:52:10;;;;;;;;;;;;;;;-4.76;82.19;99627.65;1784433;80;20168;-66
2022/03/09 02:54:37;;;;;;;;;;;;;;;-4.80;82.36;99627.25;1784243;79;20156;-68
2022/03/09 02:57:06;;;;;;;;;;;;;;;-4.83;82.45;99627.68;1784363;80;21098;-68
2022/03/09 02:59:33;;;;;;;;;;;;;;;-4.83;82.65;99628.20;1784228;80;20161;-68
2022/03/09 03:02:01;;;;;;;;;;;;;;;-4.83;83.15;99629.54;1784214;80;20092;-67
2022/03/09 03:04:28;;;;;;;;;;;;;;;-4.83;83.16;99626.86;1784106;79;21018;-68
2022/03/09 03:06:55;;;;;;;;;;;;;;;-4.86;83.02;99629.97;1784177;80;20140;-66
2022/03/09 03:09:23;;;;;;;;;;;;;;;-4.88;82.95;99628.84;1765149;80;21833;-66
2022/03/09 03:11:50;;;;;;;;;;;;;;;-4.90;83.34;99628.23;1751725;82;20099;-66
2022/03/09 03:14:19;;;;;;;;;;;;;;;-4.96;82.75;99627.75;1751833;82;20192;-66
2022/03/09 03:16:48;;;;;;;;;;;;;;;-5.04;82.50;99633.34;1752264;82;20148;-66
2022/03/09 03:19:15;;;;;;;;;;;;;;;-5.10;82.47;99630.17;1752269;82;20094;-66
2022/03/09 03:21:42;;;;;;;;;;;;;;;-5.20;82.66;99627.16;1752304;82;21156;-65
2022/03/09 03:24:09;;;;;;;;;;;;;;;-5.24;82.92;99629.94;1751904;82;20111;-66
2022/03/09 03:26:37;;;;;;;;;;;;;;;-5.30;82.82;99628.94;1752466;82;20102;-65
2022/03/09 03:29:05;;;;;;;;;;;;;;;-5.35;82.76;99630.08;1752506;82;20194;-65
2022/03/09 03:31:33;;;;;;;;;;;;;;;-5.41;82.91;99627.73;1752305;82;20094;-65
2022/03/09 03:34:00;;;;;;;;;;;;;;;-5.44;83.08;99630.83;1752674;82;21225;-65
2022/03/09 03:36:27;;;;;;;;;;;;;;;-5.48;83.01;99631.45;1752520;82;20146;-65
2022/03/09 03:38:54;;;;;;;;;;;;;;;-5.53;83.05;99642.78;1752123;82;20126;-65
2022/03/09 03:41:20;;;;;;;;;;;;;;;-5.57;83.54;99638.05;1752354;82;20985;-66
2022/03/09 03:43:48;;;;;;;;;;;;;;;-5.60;83.61;99635.80;1752338;82;20098;-66
2022/03/09 03:46:14;;;;;;;;;;;;;;;-5.66;83.59;99636.94;1752256;80;21113;-66
2022/03/09 03:48:41;;;;;;;;;;;;;;;-5.71;83.71;99634.58;1752486;82;20122;-66
2022/03/09 03:51:09;;;;;;;;;;;;;;;-5.74;84.01;99638.49;1752269;81;20174;-64
2022/03/09 03:53:36;;;;;;;;;;;;;;;-5.74;84.26;99637.16;1752545;82;20209;-66
2022/03/09 03:56:05;;;;;;;;;;;;;;;-5.73;84.42;99639.31;1752474;82;20083;-66
2022/03/09 03:58:32;;;;;;;;;;;;;;;-5.70;84.56;99645.59;1752398;82;21733;-66
2022/03/09 04:00:59;;;;;;;;;;;;;;;-5.66;84.79;99648.15;1752295;82;20418;-66
2022/03/09 04:03:25;;;;;;;;;;;;;;;-5.65;84.52;99641.77;1752743;82;20122;-67
2022/03/09 04:05:52;;;;;;;;;;;;;;;-5.66;84.58;99639.61;1752597;81;20432;-66
2022/03/09 04:08:20;;;;;;;;;;;;;;;-5.67;84.47;99642.49;1757337;79;20092;-65
2022/03/09 04:10:51;;;;;;;;;;;;;;;-5.68;84.87;99643.01;1784917;80;21245;-65
2022/03/09 04:13:17;;;;;;;;;;;;;;;-5.68;84.94;99636.84;1785109;80;20160;-65
2022/03/09 04:15:45;;;;;;;;;;;;;;;-5.68;84.83;99643.52;1784958;80;20124;-65
2022/03/09 04:18:12;;;;;;;;;;;;;;;-5.68;84.74;99643.01;1785043;80;20080;-66
2022/03/09 04:20:40;;;;;;;;;;;;;;;-5.70;84.97;99641.06;1784922;80;20104;-67
2022/03/09 04:23:09;;;;;;;;;;;;;;;-5.71;85.01;99642.09;1785000;80;21178;-67
2022/03/09 04:25:37;;;;;;;;;;;;;;;-5.73;84.99;99641.47;1785081;80;20412;-67
2022/03/09 04:28:05;;;;;;;;;;;;;;;-5.73;84.93;99644.66;1785043;80;20407;-66
2022/03/09 04:30:32;;;;;;;;;;;;;;;-5.77;85.42;99651.45;1784924;80;20088;-67
2022/03/09 04:32:59;;;;;;;;;;;;;;;-5.78;85.27;99643.16;1785109;80;20080;-66
2022/03/09 04:35:26;;;;;;;;;;;;;;;-5.81;85.16;99651.08;1785085;80;21035;-65
2022/03/09 04:37:55;;;;;;;;;;;;;;;-5.81;85.18;99646.24;1785006;80;20422;-65
2022/03/09 04:40:22;;;;;;;;;;;;;;;-5.79;85.50;99645.52;1775822;80;20480;-66
2022/03/09 04:42:51;;;;;;;;;;;;;;;-5.80;85.10;99655.91;1760349;80;20090;-66
2022/03/09 04:45:20;;;;;;;;;;;;;;;-5.81;85.05;99654.27;1767799;80;20114;-66
2022/03/09 04:47:47;;;;;;;;;;;;;;;-5.81;85.15;99660.95;1753937;82;21169;-67
2022/03/09 04:50:15;;;;;;;;;;;;;;;-5.78;85.45;99664.55;1767346;80;20082;-66
2022/03/09 04:52:42;;;;;;;;;;;;;;;-5.73;85.49;99670.06;1773817;80;20120;-64
2022/03/09 04:55:09;;;;;;;;;;;;;;;-5.68;85.56;99676.95;1753728;82;20143;-65
2022/03/09 04:57:37;;;;;;;;;;;;;;;-5.62;85.71;99681.98;1754173;82;20122;-65
2022/03/09 05:00:05;;;;;;;;;;;;;;;-5.54;85.86;99674.57;1753979;82;21127;-65
2022/03/09 05:02:34;;;;;;;;;;;;;;;-5.45;85.64;99679.19;1753898;82;20437;-70
2022/03/09 05:05:01;;;;;;;;;;;;;;;-5.40;85.01;99674.86;1753829;81;20082;-65
2022/03/09 05:07:30;;;;;;;;;;;;;;;-5.35;84.82;99680.92;1753991;82;20091;-67
2022/03/09 05:09:57;;;;;;;;;;;;;;;-5.28;84.82;99685.74;1752589;80;20171;-67
2022/03/09 05:12:25;;;;;;;;;;;;;;;-5.23;84.61;99684.59;1752243;82;20158;-66
2022/03/09 05:14:55;;;;;;;;;;;;;;;-5.19;83.94;99687.64;1752019;82;20169;-67
2022/03/09 05:17:21;;;;;;;;;;;;;;;-5.19;84.37;99686.31;1752375;81;20425;-67
2022/03/09 05:19:48;;;;;;;;;;;;;;;-5.20;84.06;99688.19;1752319;82;20630;-67
2022/03/09 05:22:19;;;;;;;;;;;;;;;-5.18;84.04;99687.95;1752141;82;20134;-67
2022/03/09 05:24:45;;;;;;;;;;;;;;;-5.15;83.70;99694.22;1752350;82;21086;-65
2022/03/09 05:27:12;;;;;;;;;;;;;;;-5.13;83.92;99696.17;1752510;82;20099;-67
2022/03/09 05:29:39;;;;;;;;;;;;;;;-5.07;84.11;99696.16;1757025;80;20118;-64
2022/03/09 05:32:07;;;;;;;;;;;;;;;-4.99;83.89;99708.48;1798369;79;20771;-66
2022/03/09 05:34:35;;;;;;;;;;;;;;;-4.94;83.62;99706.00;1797706;79;20218;-66
2022/03/09 05:37:03;;;;;;;;;;;;;;;-4.90;83.89;99707.22;1797416;80;22028;-66
2022/03/09 05:39:31;;;;;;;;;;;;;;;-4.85;83.65;99706.59;1797670;80;20091;-66
2022/03/09 05:41:58;;;;;;;;;;;;;;;-4.79;83.57;99712.44;1782576;79;20138;-66
2022/03/09 05:44:25;;;;;;;;;;;;;;;-4.71;83.83;99714.88;1766372;80;20119;-66
2022/03/09 05:46:52;;;;;;;;;;;;;;;-4.60;83.60;99716.04;1774930;80;20092;-64
2022/03/09 05:49:20;;;;;;;;;;;;;;;-4.58;83.16;99712.11;1784858;80;22095;-64
2022/03/09 05:51:47;;;;;;;;;;;;;;;-4.53;83.41;99714.16;1784045;79;20120;-64
2022/03/09 05:54:14;;;;;;;;;;;;;;;-4.50;83.09;99714.55;1783657;80;20089;-64
2022/03/09 05:56:42;;;;;;;;;;;;;;;-4.46;82.95;99717.63;1779670;80;20182;-64
2022/03/09 05:59:12;;;;;;;;;;;;;;;-4.40;81.87;99718.11;1783584;80;20112;-65
2022/03/09 06:01:38;;;;;;;;;;;;;;;-4.37;82.36;99715.00;1783918;80;21120;-65
2022/03/09 06:04:05;;;;;;;;;;;;;;;-4.30;82.72;99717.64;1784108;80;20116;-65
2022/03/09 06:06:32;;;;;;;;;;;;;;;-4.21;82.74;99723.05;1783746;80;20153;-65
2022/03/09 06:08:59;;;;;;;;;;;;;;;-4.13;82.37;99728.98;1780045;80;20130;-65
2022/03/09 06:11:27;;;;;;;;;;;;;;;-4.04;82.05;99728.18;1785190;80;20108;-65
2022/03/09 06:13:54;;;;;;;;;;;;;;;-3.93;82.12;99732.03;1783370;80;21062;-65
2022/03/09 06:16:22;;;;;;;;;;;;;;;-3.83;81.76;99737.73;1770343;80;20143;-65
2022/03/09 06:18:50;;;;;;;;;;;;;;;-3.77;81.84;99731.50;1766433;80;20424;-65
2022/03/09 06:21:17;;;;;;;;;;;;;;;-3.66;81.88;99740.19;1777845;80;20431;-65
2022/03/09 06:23:45;;;;;;;;;;;;;;;-3.55;81.74;99739.48;1777793;80;20113;-65
2022/03/09 06:26:13;;;;;;;;;;;;;;;-3.41;81.29;99734.79;1777674;80;21186;-65
2022/03/09 06:28:41;;;;;;;;;;;;;;;-3.29;81.08;99727.66;1777415;80;20081;-65
2022/03/09 06:31:08;;;;;;;;;;;;;;;-3.19;80.16;99737.89;1775958;81;20084;-65
2022/03/09 06:33:35;;;;;;;;;;;;;;;-3.13;79.51;99737.83;1776209;80;20416;-66
2022/03/09 06:36:02;;;;;;;;;;;;;;;-3.03;79.40;99743.51;1776014;80;20116;-66
2022/03/09 06:38:29;;;;;;;;;;;;;;;-2.90;78.68;99739.05;1776201;80;21121;-66
2022/03/09 06:40:57;;;;;;;;;;;;;;;-2.77;78.75;99732.15;1777223;80;20180;-66
2022/03/09 06:43:23;;;;;;;;;;;;;;;-2.58;78.04;99743.72;1777370;80;20151;-65
2022/03/09 06:45:50;;;;;;;;;;;;;;;-2.49;78.29;99732.43;1777405;80;20625;-65
2022/03/09 06:48:18;;;;;;;;;;;;;;;-2.42;76.91;99737.20;1777352;80;20116;-65
2022/03/09 06:50:45;;;;;;;;;;;;;;;-2.42;77.17;99742.58;1777492;80;21080;-66
2022/03/09 06:53:12;;;;;;;;;;;;;;;-2.30;76.83;99741.78;1777304;80;20128;-67
2022/03/09 06:55:39;;;;;;;;;;;;;;;-2.17;76.54;99737.57;1777511;80;20109;-66
2022/03/09 06:58:07;;;;;;;;;;;;;;;-2.11;76.44;99739.35;1777319;80;20118;-66
2022/03/09 07:00:36;;;;;;;;;;;;;;;-2.05;76.39;99743.30;1777434;80;20084;-66
2022/03/09 07:03:05;;;;;;;;;;;;;;;-2.01;74.91;99741.78;1777847;80;21124;-65
2022/03/09 07:05:32;;;;;;;;;;;;;;;-2.06;75.34;99748.91;1776068;80;21011;-66
2022/03/09 07:08:00;;;;;;;;;;;;;;;-2.11;76.27;99747.42;1775997;79;20435;-65
2022/03/09 07:10:26;;;;;;;;;;;;;;;-2.08;75.11;99741.06;1776157;80;20164;-65
2022/03/09 07:12:53;;;;;;;;;;;;;;;-1.92;76.01;99748.19;1775997;80;20192;-65
2022/03/09 07:15:22;;;;;;;;;;;;;;;-1.53;74.85;99739.48;1771821;78;20665;-66
2022/03/09 07:17:49;;;;;;;;;;;;;;;-1.06;73.42;99738.95;1775494;80;20108;-65
2022/03/09 07:20:15;;;;;;;;;;;;;;;-0.63;71.68;99739.60;1775551;80;20167;-66
2022/03/09 07:22:45;;;;;;;;;;;;;;;-0.22;71.14;99735.82;1775721;80;20134;-66
2022/03/09 07:25:12;;;;;;;;;;;;;;;0.20;67.47;99742.52;1775408;80;20081;-67
2022/03/09 07:27:39;;;;;;;;;;;;;;;0.49;67.05;99735.19;1775612;81;21167;-67
2022/03/09 07:30:06;;;;;;;;;;;;;;;0.70;64.83;99741.71;1775951;81;20125;-67
2022/03/09 07:32:35;;;;;;;;;;;;;;;0.82;65.39;99741.63;1775692;80;20108;-67
2022/03/09 07:35:02;;;;;;;;;;;;;;;1.10;65.19;99741.50;1775495;81;20626;-67
2022/03/09 07:37:31;;;;;;;;;;;;;;;1.36;63.57;99728.30;1775755;81;20420;-67
2022/03/09 07:39:58;;;;;;;;;;;;;;;1.54;62.54;99730.16;1775426;81;21318;-66
2022/03/09 07:42:33;;;;;;;;;;;;;;;1.59;62.44;99733.47;1775478;80;20085;-67
2022/03/09 07:45:06;;;;;;;;;;;;;;;1.77;61.54;99724.99;1774794;81;32347;-66
2022/03/09 07:47:39;;;;;;;;;;;;;;;2.04;61.57;99728.26;1752874;80;20116;-68
2022/03/09 07:50:13;;;;;;;;;;;;;;;2.37;61.08;99730.72;1774920;80;20132;-67
2022/03/09 07:52:49;;;;;;;;;;;;;;;2.56;60.28;99733.33;1776423;80;21117;-79
2022/03/09 07:55:18;;;;;;;;;;;;;;;2.45;57.83;99734.85;1780777;80;20251;-82
2022/03/09 07:57:52;;;;;;;;;;;;;;;2.28;57.82;99732.30;1776684;80;20306;-67
2022/03/09 08:00:16;;;;;;;;;;;;;;;2.19;58.85;99733.30;1775520;80;20108;-78
2022/03/09 08:02:48;;;;;;;;;;;;;;;2.26;59.31;99727.67;1753420;80;20143;-67
2022/03/09 08:05:22;;;;;;;;;;;;;;;2.45;58.63;99724.83;1774285;80;21799;-67
2022/03/09 08:07:52;;;;;;;;;;;;;;;2.73;58.81;99724.24;1722703;82;20079;-69
2022/03/09 08:10:28;;;;;;;;;;;;;;;2.96;58.26;99727.36;1734097;81;20491;-68
2022/03/09 08:12:53;;;;;;;;;;;;;;;3.28;57.55;99729.19;1697563;83;20149;-67
2022/03/09 08:15:20;;;;;;;;;;;;;;;3.43;57.55;99723.84;1737459;80;20151;-66
2022/03/09 08:17:49;;;;;;;;;;;;;;;3.58;58.01;99731.20;1741336;82;21099;-68
2022/03/09 08:20:16;;;;;;;;;;;;;;;3.80;56.02;99714.19;1741084;82;20170;-68
2022/03/09 08:22:43;;;;;;;;;;;;;;;3.90;54.81;99728.33;1741152;81;20171;-69
2022/03/09 08:25:10;;;;;;;;;;;;;;;3.82;54.25;99717.98;1740850;82;20171;-68
2022/03/09 08:27:37;;;;;;;;;;;;;;;3.53;53.34;99720.32;1740910;82;20167;-74
2022/03/09 08:30:04;;;;;;;;;;;;;;;3.29;53.00;99720.78;1768932;81;21020;-73
2022/03/09 08:32:32;;;;;;;;;;;;;;;3.01;54.34;99729.83;1773122;81;20105;-74
2022/03/09 08:34:59;;;;;;;;;;;;;;;2.73;55.82;99728.31;1773274;81;20200;-73
2022/03/09 08:37:26;;;;;;;;;;;;;;;2.64;55.82;99725.27;1773741;81;20172;-73
2022/03/09 08:39:52;;;;;;;;;;;;;;;2.58;55.55;99726.30;1773246;81;20208;-73
2022/03/09 08:42:19;;;;;;;;;;;;;;;2.45;57.01;99725.38;1773240;81;22382;-72
2022/03/09 08:44:46;;;;;;;;;;;;;;;2.66;58.51;99725.81;1773579;81;20124;-72
2022/03/09 08:47:12;;;;;;;;;;;;;;;3.05;57.29;99728.23;1773429;81;20177;-73
2022/03/09 08:49:40;;;;;;;;;;;;;;;3.36;54.54;99726.52;1773884;81;20140;-72
2022/03/09 08:52:08;;;;;;;;;;;;;;;3.49;54.22;99730.89;1773411;81;20149;-68
2022/03/09 08:54:35;;;;;;;;;;;;;;;3.72;56.01;99732.89;1773384;81;21125;-70
2022/03/09 08:57:02;;;;;;;;;;;;;;;4.16;53.26;99725.11;1773304;81;20081;-66
2022/03/09 08:59:29;;;;;;;;;;;;;;;4.36;53.27;99725.14;1773796;81;20145;-66
2022/03/09 09:01:56;;;;;;;;;;;;;;;4.50;53.49;99722.16;1773599;81;20751;-66
2022/03/09 09:04:23;;;;;;;;;;;;;;;4.79;53.20;99716.96;1773556;81;20124;-66
2022/03/09 09:06:50;;;;;;;;;;;;;;;5.10;52.50;99730.53;1773581;81;21294;-66
2022/03/09 09:09:20;;;;;;;;;;;;;;;5.46;51.22;99732.04;1755682;81;20644;-66
2022/03/09 09:11:47;;;;;;;;;;;;;;;5.84;51.20;99720.97;1741449;82;20178;-67
2022/03/09 09:14:14;;;;;;;;;;;;;;;6.20;51.03;99727.06;1741602;82;20665;-67
2022/03/09 09:16:43;;;;;;;;;;;;;;;6.45;50.29;99727.41;1739457;82;20214;-67
2022/03/09 09:19:10;;;;;;;;;;;;;;;6.69;48.63;99733.51;1739457;82;21156;-67
2022/03/09 09:21:38;;;;;;;;;;;;;;;6.77;47.82;99732.34;1739334;81;20449;-67
2022/03/09 09:24:05;;;;;;;;;;;;;;;6.84;47.42;99733.38;1739159;82;20450;-68
2022/03/09 09:26:32;;;;;;;;;;;;;;;6.57;46.23;99741.50;1738121;82;20148;-72
2022/03/09 09:29:00;;;;;;;;;;;;;;;5.86;45.68;99734.30;1739536;81;20179;-71
2022/03/09 09:31:27;;;;;;;;;;;;;;;5.31;47.65;99741.06;1766331;79;21194;-73
2022/03/09 09:33:54;;;;;;;;;;;;;;;4.74;48.21;99748.78;1771163;81;20579;-70
2022/03/09 09:36:21;;;;;;;;;;;;;;;4.23;49.35;99744.69;1771712;81;20148;-68
2022/03/09 09:38:48;;;;;;;;;;;;;;;4.06;50.92;99735.95;1769567;81;20637;-68
2022/03/09 09:41:18;;;;;;;;;;;;;;;3.93;51.81;99738.12;1771084;80;20083;-67
2022/03/09 09:43:44;;;;;;;;;;;;;;;3.93;52.26;99730.52;1771541;80;21139;-72
2022/03/09 09:46:12;;;;;;;;;;;;;;;3.88;51.47;99734.03;1754278;82;20159;-68
2022/03/09 09:48:39;;;;;;;;;;;;;;;3.70;51.24;99738.58;1767061;81;20116;-68
2022/03/09 09:51:07;;;;;;;;;;;;;;;3.27;52.67;99741.12;1767061;81;20196;-70
2022/03/09 09:53:35;;;;;;;;;;;;;;;3.00;53.98;99742.58;1767379;80;20097;-68
2022/03/09 09:56:03;;;;;;;;;;;;;;;2.67;54.31;99749.14;1767121;81;21319;-69
2022/03/09 09:58:30;;;;;;;;;;;;;;;2.33;54.84;99750.73;1767517;81;20448;-67
2022/03/09 10:00:57;;;;;;;;;;;;;;;2.22;56.32;99750.92;1767089;80;20431;-65
2022/03/09 10:03:25;;;;;;;;;;;;;;;2.29;56.55;99749.64;1767314;80;20424;-68
2022/03/09 10:05:52;;;;;;;;;;;;;;;2.38;57.29;99752.67;1767212;81;20113;-68
2022/03/09 10:08:19;;;;;;;;;;;;;;;2.34;57.06;99752.91;1764724;80;22030;-67
2022/03/09 10:11:01;;;;;;;;;;;;;;;2.37;57.35;99754.29;1771410;81;20424;-72
2022/03/09 10:13:31;;;;;;;;;;;;;;;2.25;56.80;99755.83;1766234;81;20446;-68
2022/03/09 10:16:16;;;;;;;;;;;;;;;2.16;57.60;99750.59;1770887;80;20489;-69
2022/03/09 10:18:54;;;;;;;;;;;;;;;2.27;58.07;99756.39;1771450;81;20168;-68
2022/03/09 10:21:28;;;;;;;;;;;;;;;2.24;57.40;99746.89;1747150;81;20085;-68
2022/03/09 10:24:05;;;;;;;;;;;;;;;2.38;57.45;99748.61;1771831;81;20116;-67
2022/03/09 10:26:42;;;;;;;;;;;;;;;2.51;57.34;99748.73;1771453;80;20180;-68
2022/03/09 10:29:14;;;;;;;;;;;;;;;2.67;57.66;99759.16;1771371;80;21159;-76
2022/03/09 10:31:45;;;;;;;;;;;;;;;2.71;56.55;99753.50;1771586;80;20475;-74
2022/03/09 10:34:18;;;;;;;;;;;;;;;2.65;56.45;99753.46;1771754;81;21121;-67
2022/03/09 10:37:06;;;;;;;;;;;;;;;2.59;56.26;99753.14;1770978;81;20093;-67
2022/03/09 10:39:34;;;;;;;;;;;;;;;2.32;56.38;99750.98;1781867;80;20104;-68
2022/03/09 10:42:03;;;;;;;;;;;;;;;2.17;57.12;99747.63;1781878;80;20141;-67
2022/03/09 10:44:47;;;;;;;;;;;;;;;2.23;56.83;99753.91;1782038;80;20187;-67
2022/03/09 10:47:37;;;;;;;;;;;;;;;2.25;56.23;99755.83;1781814;80;21149;-69
2022/03/09 10:50:14;;;;;;;;;;;;;;;2.16;56.38;99754.11;1782130;80;20097;-68
2022/03/09 10:52:49;;;;;;;;;;;;;;;2.06;56.27;99750.48;1781898;80;20501;-67
2022/03/09 10:55:24;;;;;;;;;;;;;;;1.83;56.56;99751.58;1781592;80;20717;-67
2022/03/09 10:58:12;;;;;;;;;;;;;;;1.61;57.48;99745.67;1781789;79;20153;-68
2022/03/09 11:00:43;;;;;;;;;;;;;;;1.56;58.17;99752.91;1782119;80;20637;-67
2022/03/09 11:03:23;;;;;;;;;;;;;;;1.88;58.57;99741.63;1781714;80;20135;-69
2022/03/09 11:06:01;;;;;;;;;;;;;;;2.35;58.79;99748.30;1766089;81;20428;-68
2022/03/09 11:08:34;;;;;;;;;;;;;;;2.70;57.20;99747.80;1764556;81;20186;-68
2022/03/09 11:11:01;;;;;;;;;;;;;;;2.78;55.35;99747.33;1739360;81;20405;-68
2022/03/09 11:13:32;;;;;;;;;;;;;;;2.74;55.48;99748.38;1784851;80;20125;-68
2022/03/09 11:16:01;;;;;;;;;;;;;;;2.63;54.75;99740.70;1796735;78;20462;-66
2022/03/09 11:18:31;;;;;;;;;;;;;;;2.47;55.03;99741.65;1795298;80;20450;-67
2022/03/09 11:21:04;;;;;;;;;;;;;;;2.52;56.48;99747.66;1796544;80;20670;-67
2022/03/09 11:23:40;;;;;;;;;;;;;;;2.98;56.01;99746.91;1797033;80;20108;-67
2022/03/09 11:26:21;;;;;;;;;;;;;;;3.31;56.16;99745.76;1796971;80;21189;-66
2022/03/09 11:28:47;;;;;;;;;;;;;;;3.42;53.54;99741.20;1796243;80;20518;-66
2022/03/09 11:31:23;;;;;;;;;;;;;;;3.20;53.79;99746.78;1796655;80;20080;-67
2022/03/09 11:33:56;;;;;;;;;;;;;;;2.90;54.19;99744.67;1795995;80;20192;-65
2022/03/09 11:36:35;;;;;;;;;;;;;;;2.57;54.88;99743.09;1796368;80;20477;-66
2022/03/09 11:39:17;;;;;;;;;;;;;;;2.41;53.58;99743.22;1796971;80;21159;-66
2022/03/09 11:41:42;;;;;;;;;;;;;;;2.28;54.91;99742.59;1796225;80;20127;-66
2022/03/09 11:44:24;;;;;;;;;;;;;;;2.31;54.77;99743.41;1767342;80;20112;-66
2022/03/09 11:47:03;;;;;;;;;;;;;;;2.30;55.10;99745.05;1767371;80;20136;-65
2022/03/09 11:50:05;;;;;;;;;;;;;;;2.29;56.09;99744.23;1788670;80;20077;-66
2022/03/09 11:52:34;;;;;;;;;;;;;;;2.18;55.54;99752.51;1753923;82;21244;-66
2022/03/09 11:55:05;;;;;;;;;;;;;;;1.95;55.74;99750.37;1752965;82;20138;-66
2022/03/09 11:57:53;;;;;;;;;;;;;;;1.67;56.08;99756.03;1728994;82;20099;-67
2022/03/09 12:00:20;;;;;;;;;;;;;;;1.41;56.75;99758.13;1754135;82;20587;-66
2022/03/09 12:02:55;;;;;;;;;;;;;;;1.25;56.61;99755.21;1754353;82;20139;-66
2022/03/09 12:05:34;;;;;;;;;;;;;;;1.19;57.81;99760.27;1752990;82;21167;-66
2022/03/09 12:08:11;;;;;;;;;;;;;;;1.23;58.26;99757.34;1753934;82;20146;-66
2022/03/09 12:10:44;;;;;;;;;;;;;;;1.23;58.22;99755.99;1753022;82;20429;-65
2022/03/09 12:13:33;;;;;;;;;;;;;;;1.24;57.89;99752.22;1727700;82;20071;-66
2022/03/09 12:16:12;;;;;;;;;;;;;;;1.24;58.78;99763.03;1749523;80;20206;-66
2022/03/09 12:18:43;;;;;;;;;;;;;;;1.21;59.07;99757.31;1752544;82;20139;-67
2022/03/09 12:21:17;;;;;;;;;;;;;;;1.20;58.88;99757.84;1752771;82;20544;-65
2022/03/09 12:24:04;;;;;;;;;;;;;;;1.24;59.00;99759.52;1745458;80;20145;-66
2022/03/09 12:26:50;;;;;;;;;;;;;;;1.35;60.14;99760.48;1732858;81;20169;-66
2022/03/09 12:29:30;;;;;;;;;;;;;;;1.44;59.06;99755.73;1724359;83;20180;-66
2022/03/09 12:32:19;;;;;;;;;;;;;;;1.54;58.70;99755.05;1699084;83;20196;-67
2022/03/09 12:34:48;;;;;;;;;;;;;;;1.55;58.37;99756.16;1722674;83;20093;-68
2022/03/09 12:37:21;;;;;;;;;;;;;;;1.51;58.18;99758.25;1724323;83;20077;-66
2022/03/09 12:39:56;;;;;;;;;;;;;;;1.47;58.46;99757.94;1723991;83;20149;-68
2022/03/09 12:42:31;;;;;;;;;;;;;;;1.42;58.37;99758.41;1723713;82;20458;-66
2022/03/09 12:44:59;;;;;;;;;;;;;;;1.37;59.13;99764.56;1733839;81;21156;-69
2022/03/09 12:47:25;;;;;;;;;;;;;;;1.40;59.17;99760.55;1743171;82;20162;-66
2022/03/09 12:50:03;;;;;;;;;;;;;;;1.40;59.12;99765.42;1736725;82;20118;-66
2022/03/09 12:52:37;;;;;;;;;;;;;;;1.48;58.98;99764.17;1725296;82;20166;-67
2022/03/09 12:55:02;;;;;;;;;;;;;;;1.54;57.95;99757.22;1693706;84;20164;-65
2022/03/09 12:57:33;;;;;;;;;;;;;;;1.56;58.00;99755.08;1747084;82;21149;-67
2022/03/09 13:00:16;;;;;;;;;;;;;;;1.55;58.35;99755.33;1746959;82;20170;-69
2022/03/09 13:02:55;;;;;;;;;;;;;;;1.61;57.42;99753.80;1745078;81;20135;-69
2022/03/09 13:05:27;;;;;;;;;;;;;;;1.63;58.00;99754.89;1746708;82;20182;-66